sensor_id;sensor_type;location;lat;lon;timestamp;P1;durP1;ratioP1;P2;durP2;ratioP2
9052;SDS011;4561;47.450;7.516;2023-05-07T00:01:26;7.57;;;3.63;;
9052;SDS011;4561;47.450;7.516;2023-05-07T00:04:46;5.83;;;3.00;;
9052;SDS011;4561;47.450;7.516;2023-05-07T00:08:07;3.40;;;2.90;;
9052;SDS011;4561;47.450;7.516;2023-05-07T00:11:27;5.07;;;4.10;;
9052;SDS011;4561;47.450;7.516;2023-05-07T00:14:48;6.20;;;4.00;;
9052;SDS011;4561;47.450;7.516;2023-05-07T00:18:11;5.57;;;3.43;;
9052;SDS011;4561;47.450;7.516;2023-05-07T00:21:31;5.00;;;3.80;;
9052;SDS011;4561;47.450;7.516;2023-05-07T00:24:51;4.27;;;2.83;;
9052;SDS011;4561;47.450;7.516;2023-05-07T00:28:15;6.80;;;4.20;;
9052;SDS011;4561;47.450;7.516;2023-05-07T00:31:35;4.73;;;3.57;;
9052;SDS011;4561;47.450;7.516;2023-05-07T00:34:59;5.13;;;3.17;;
9052;SDS011;4561;47.450;7.516;2023-05-07T00:38:19;3.80;;;3.50;;
9052;SDS011;4561;47.450;7.516;2023-05-07T00:41:40;6.53;;;4.17;;
9052;SDS011;4561;47.450;7.516;2023-05-07T00:45:00;10.47;;;4.27;;
9052;SDS011;4561;47.450;7.516;2023-05-07T00:48:20;4.90;;;3.90;;
9052;SDS011;4561;47.450;7.516;2023-05-07T00:51:41;6.67;;;3.60;;
9052;SDS011;4561;47.450;7.516;2023-05-07T00:55:05;4.97;;;3.03;;
9052;SDS011;4561;47.450;7.516;2023-05-07T00:58:29;5.00;;;2.87;;
9052;SDS011;4561;47.450;7.516;2023-05-07T01:01:50;3.60;;;3.03;;
9052;SDS011;4561;47.450;7.516;2023-05-07T01:05:12;4.83;;;3.47;;
9052;SDS011;4561;47.450;7.516;2023-05-07T01:08:34;4.93;;;3.20;;
9052;SDS011;4561;47.450;7.516;2023-05-07T01:11:55;3.73;;;3.40;;
9052;SDS011;4561;47.450;7.516;2023-05-07T01:15:21;5.23;;;3.50;;
9052;SDS011;4561;47.450;7.516;2023-05-07T01:18:41;6.60;;;3.60;;
9052;SDS011;4561;47.450;7.516;2023-05-07T01:22:07;9.27;;;3.43;;
9052;SDS011;4561;47.450;7.516;2023-05-07T01:25:31;6.23;;;3.80;;
9052;SDS011;4561;47.450;7.516;2023-05-07T01:28:52;8.10;;;3.50;;
9052;SDS011;4561;47.450;7.516;2023-05-07T01:32:12;3.50;;;3.20;;
9052;SDS011;4561;47.450;7.516;2023-05-07T01:35:35;3.50;;;3.20;;
9052;SDS011;4561;47.450;7.516;2023-05-07T01:38:58;4.27;;;3.37;;
9052;SDS011;4561;47.450;7.516;2023-05-07T01:42:19;4.40;;;4.00;;
9052;SDS011;4561;47.450;7.516;2023-05-07T01:45:39;5.47;;;3.50;;
9052;SDS011;4561;47.450;7.516;2023-05-07T01:49:00;6.80;;;3.83;;
9052;SDS011;4561;47.450;7.516;2023-05-07T01:52:21;4.17;;;3.60;;
9052;SDS011;4561;47.450;7.516;2023-05-07T01:55:41;7.43;;;4.20;;
9052;SDS011;4561;47.450;7.516;2023-05-07T01:59:01;5.03;;;4.43;;
9052;SDS011;4561;47.450;7.516;2023-05-07T02:02:22;4.70;;;4.17;;
9052;SDS011;4561;47.450;7.516;2023-05-07T02:05:42;5.27;;;3.90;;
9052;SDS011;4561;47.450;7.516;2023-05-07T02:09:03;5.03;;;4.30;;
9052;SDS011;4561;47.450;7.516;2023-05-07T02:12:26;6.57;;;3.83;;
9052;SDS011;4561;47.450;7.516;2023-05-07T02:15:46;8.83;;;4.20;;
9052;SDS011;4561;47.450;7.516;2023-05-07T02:19:10;4.73;;;3.63;;
9052;SDS011;4561;47.450;7.516;2023-05-07T02:22:30;8.60;;;5.10;;
9052;SDS011;4561;47.450;7.516;2023-05-07T02:25:53;7.67;;;4.40;;
9052;SDS011;4561;47.450;7.516;2023-05-07T02:29:14;8.17;;;4.57;;
9052;SDS011;4561;47.450;7.516;2023-05-07T02:32:35;5.70;;;4.63;;
9052;SDS011;4561;47.450;7.516;2023-05-07T02:35:55;4.83;;;4.37;;
9052;SDS011;4561;47.450;7.516;2023-05-07T02:39:16;6.50;;;4.50;;
9052;SDS011;4561;47.450;7.516;2023-05-07T02:42:38;6.10;;;4.53;;
9052;SDS011;4561;47.450;7.516;2023-05-07T02:46:02;7.67;;;3.97;;
9052;SDS011;4561;47.450;7.516;2023-05-07T02:49:26;5.27;;;4.30;;
9052;SDS011;4561;47.450;7.516;2023-05-07T02:52:48;8.13;;;6.03;;
9052;SDS011;4561;47.450;7.516;2023-05-07T02:56:09;5.83;;;5.33;;
9052;SDS011;4561;47.450;7.516;2023-05-07T02:59:29;5.63;;;5.00;;
9052;SDS011;4561;47.450;7.516;2023-05-07T03:02:50;5.20;;;4.70;;
9052;SDS011;4561;47.450;7.516;2023-05-07T03:06:10;5.80;;;4.40;;
9052;SDS011;4561;47.450;7.516;2023-05-07T03:09:33;8.20;;;4.67;;
9052;SDS011;4561;47.450;7.516;2023-05-07T03:12:53;5.27;;;4.47;;
9052;SDS011;4561;47.450;7.516;2023-05-07T03:16:13;4.27;;;3.87;;
9052;SDS011;4561;47.450;7.516;2023-05-07T03:19:34;3.83;;;3.43;;
9052;SDS011;4561;47.450;7.516;2023-05-07T03:22:54;7.47;;;3.90;;
9052;SDS011;4561;47.450;7.516;2023-05-07T03:26:14;7.17;;;4.00;;
9052;SDS011;4561;47.450;7.516;2023-05-07T03:29:35;8.10;;;4.83;;
9052;SDS011;4561;47.450;7.516;2023-05-07T03:32:55;6.73;;;4.57;;
9052;SDS011;4561;47.450;7.516;2023-05-07T03:36:16;7.13;;;4.97;;
9052;SDS011;4561;47.450;7.516;2023-05-07T03:39:36;5.77;;;4.13;;
9052;SDS011;4561;47.450;7.516;2023-05-07T03:42:57;5.93;;;4.30;;
9052;SDS011;4561;47.450;7.516;2023-05-07T03:46:17;8.23;;;4.50;;
9052;SDS011;4561;47.450;7.516;2023-05-07T03:49:37;5.13;;;4.20;;
9052;SDS011;4561;47.450;7.516;2023-05-07T03:52:58;4.83;;;4.00;;
9052;SDS011;4561;47.450;7.516;2023-05-07T03:56:19;4.67;;;4.27;;
9052;SDS011;4561;47.450;7.516;2023-05-07T03:59:39;6.20;;;3.70;;
9052;SDS011;4561;47.450;7.516;2023-05-07T04:02:59;4.20;;;3.53;;
9052;SDS011;4561;47.450;7.516;2023-05-07T04:06:20;7.20;;;4.13;;
9052;SDS011;4561;47.450;7.516;2023-05-07T04:09:42;5.60;;;4.03;;
9052;SDS011;4561;47.450;7.516;2023-05-07T04:13:03;5.63;;;3.70;;
9052;SDS011;4561;47.450;7.516;2023-05-07T04:16:23;4.60;;;4.00;;
9052;SDS011;4561;47.450;7.516;2023-05-07T04:19:44;4.40;;;4.00;;
9052;SDS011;4561;47.450;7.516;2023-05-07T04:23:05;7.03;;;3.73;;
9052;SDS011;4561;47.450;7.516;2023-05-07T04:26:28;6.10;;;4.10;;
9052;SDS011;4561;47.450;7.516;2023-05-07T04:29:49;5.70;;;3.70;;
9052;SDS011;4561;47.450;7.516;2023-05-07T04:33:09;5.50;;;3.60;;
9052;SDS011;4561;47.450;7.516;2023-05-07T04:36:30;5.10;;;3.57;;
9052;SDS011;4561;47.450;7.516;2023-05-07T04:39:50;6.20;;;3.87;;
9052;SDS011;4561;47.450;7.516;2023-05-07T04:43:13;4.07;;;3.63;;
9052;SDS011;4561;47.450;7.516;2023-05-07T04:46:34;5.53;;;4.93;;
9052;SDS011;4561;47.450;7.516;2023-05-07T04:49:54;4.73;;;4.23;;
9052;SDS011;4561;47.450;7.516;2023-05-07T04:53:15;5.87;;;4.93;;
9052;SDS011;4561;47.450;7.516;2023-05-07T04:56:35;7.10;;;6.17;;
9052;SDS011;4561;47.450;7.516;2023-05-07T04:59:56;6.43;;;5.23;;
9052;SDS011;4561;47.450;7.516;2023-05-07T05:03:17;7.27;;;5.27;;
9052;SDS011;4561;47.450;7.516;2023-05-07T05:06:37;7.60;;;5.43;;
9052;SDS011;4561;47.450;7.516;2023-05-07T05:09:58;6.07;;;5.47;;
9052;SDS011;4561;47.450;7.516;2023-05-07T05:13:18;6.67;;;4.87;;
9052;SDS011;4561;47.450;7.516;2023-05-07T05:16:38;6.63;;;4.80;;
9052;SDS011;4561;47.450;7.516;2023-05-07T05:19:59;6.27;;;5.47;;
9052;SDS011;4561;47.450;7.516;2023-05-07T05:23:19;8.63;;;7.20;;
9052;SDS011;4561;47.450;7.516;2023-05-07T05:26:40;9.17;;;5.23;;
9052;SDS011;4561;47.450;7.516;2023-05-07T05:30:01;5.70;;;5.10;;
9052;SDS011;4561;47.450;7.516;2023-05-07T05:33:25;6.07;;;5.47;;
9052;SDS011;4561;47.450;7.516;2023-05-07T05:36:45;5.23;;;3.83;;
9052;SDS011;4561;47.450;7.516;2023-05-07T05:40:08;5.53;;;3.77;;
9052;SDS011;4561;47.450;7.516;2023-05-07T05:43:29;4.60;;;3.40;;
9052;SDS011;4561;47.450;7.516;2023-05-07T05:46:52;3.73;;;3.03;;
9052;SDS011;4561;47.450;7.516;2023-05-07T05:50:15;6.17;;;3.87;;
9052;SDS011;4561;47.450;7.516;2023-05-07T05:53:35;3.77;;;3.40;;
9052;SDS011;4561;47.450;7.516;2023-05-07T05:56:58;4.97;;;3.53;;
9052;SDS011;4561;47.450;7.516;2023-05-07T06:00:18;6.03;;;3.23;;
9052;SDS011;4561;47.450;7.516;2023-05-07T06:03:44;4.13;;;3.50;;
9052;SDS011;4561;47.450;7.516;2023-05-07T06:07:07;6.63;;;3.87;;
9052;SDS011;4561;47.450;7.516;2023-05-07T06:10:27;5.40;;;3.30;;
9052;SDS011;4561;47.450;7.516;2023-05-07T06:13:48;3.27;;;2.97;;
9052;SDS011;4561;47.450;7.516;2023-05-07T06:17:08;3.57;;;2.83;;
9052;SDS011;4561;47.450;7.516;2023-05-07T06:20:28;5.30;;;2.90;;
9052;SDS011;4561;47.450;7.516;2023-05-07T06:23:49;5.20;;;3.23;;
9052;SDS011;4561;47.450;7.516;2023-05-07T06:27:11;4.13;;;3.10;;
9052;SDS011;4561;47.450;7.516;2023-05-07T06:30:31;3.47;;;2.70;;
9052;SDS011;4561;47.450;7.516;2023-05-07T06:33:53;5.67;;;2.70;;
9052;SDS011;4561;47.450;7.516;2023-05-07T06:37:15;3.40;;;2.50;;
9052;SDS011;4561;47.450;7.516;2023-05-07T06:40:35;4.73;;;3.07;;
9052;SDS011;4561;47.450;7.516;2023-05-07T06:43:56;7.17;;;2.97;;
9052;SDS011;4561;47.450;7.516;2023-05-07T06:47:16;2.93;;;2.60;;
9052;SDS011;4561;47.450;7.516;2023-05-07T06:50:36;4.60;;;3.10;;
9052;SDS011;4561;47.450;7.516;2023-05-07T06:53:57;3.53;;;3.00;;
9052;SDS011;4561;47.450;7.516;2023-05-07T06:57:17;4.17;;;3.10;;
9052;SDS011;4561;47.450;7.516;2023-05-07T07:00:37;4.90;;;2.90;;
9052;SDS011;4561;47.450;7.516;2023-05-07T07:03:58;2.80;;;2.60;;
9052;SDS011;4561;47.450;7.516;2023-05-07T07:07:18;3.67;;;3.27;;
9052;SDS011;4561;47.450;7.516;2023-05-07T07:10:39;4.93;;;2.53;;
9052;SDS011;4561;47.450;7.516;2023-05-07T07:13:59;3.33;;;2.30;;
9052;SDS011;4561;47.450;7.516;2023-05-07T07:17:20;4.63;;;2.20;;
9052;SDS011;4561;47.450;7.516;2023-05-07T07:20:40;5.53;;;2.50;;
9052;SDS011;4561;47.450;7.516;2023-05-07T07:24:03;3.90;;;2.50;;
9052;SDS011;4561;47.450;7.516;2023-05-07T07:27:28;5.20;;;3.03;;
9052;SDS011;4561;47.450;7.516;2023-05-07T07:30:48;2.95;;;2.65;;
9052;SDS011;4561;47.450;7.516;2023-05-07T07:34:08;2.92;;;2.50;;
9052;SDS011;4561;47.450;7.516;2023-05-07T07:37:29;3.25;;;2.70;;
9052;SDS011;4561;47.450;7.516;2023-05-07T07:40:49;5.70;;;2.35;;
9052;SDS011;4561;47.450;7.516;2023-05-07T07:44:10;3.60;;;2.47;;
9052;SDS011;4561;47.450;7.516;2023-05-07T07:47:32;3.03;;;2.67;;
9052;SDS011;4561;47.450;7.516;2023-05-07T07:50:53;2.60;;;2.40;;
9052;SDS011;4561;47.450;7.516;2023-05-07T07:54:13;4.30;;;2.80;;
9052;SDS011;4561;47.450;7.516;2023-05-07T07:57:34;2.30;;;2.10;;
9052;SDS011;4561;47.450;7.516;2023-05-07T08:00:54;3.00;;;2.45;;
9052;SDS011;4561;47.450;7.516;2023-05-07T08:04:16;4.35;;;2.53;;
9052;SDS011;4561;47.450;7.516;2023-05-07T08:07:36;5.32;;;3.28;;
9052;SDS011;4561;47.450;7.516;2023-05-07T08:10:56;6.28;;;3.90;;
9052;SDS011;4561;47.450;7.516;2023-05-07T08:14:17;9.90;;;6.95;;
9052;SDS011;4561;47.450;7.516;2023-05-07T08:17:37;3.55;;;2.33;;
9052;SDS011;4561;47.450;7.516;2023-05-07T08:20:57;2.83;;;2.45;;
9052;SDS011;4561;47.450;7.516;2023-05-07T08:24:18;4.30;;;2.50;;
9052;SDS011;4561;47.450;7.516;2023-05-07T08:27:38;3.67;;;2.45;;
9052;SDS011;4561;47.450;7.516;2023-05-07T08:30:59;3.30;;;2.53;;
9052;SDS011;4561;47.450;7.516;2023-05-07T08:34:21;5.45;;;2.60;;
9052;SDS011;4561;47.450;7.516;2023-05-07T08:37:44;4.00;;;2.78;;
9052;SDS011;4561;47.450;7.516;2023-05-07T08:41:04;3.28;;;2.08;;
9052;SDS011;4561;47.450;7.516;2023-05-07T08:44:27;4.88;;;2.10;;
9052;SDS011;4561;47.450;7.516;2023-05-07T08:47:50;2.88;;;2.42;;
9052;SDS011;4561;47.450;7.516;2023-05-07T08:51:13;4.03;;;2.10;;
9052;SDS011;4561;47.450;7.516;2023-05-07T08:54:36;3.22;;;1.70;;
9052;SDS011;4561;47.450;7.516;2023-05-07T08:57:57;2.47;;;1.58;;
9052;SDS011;4561;47.450;7.516;2023-05-07T09:01:17;3.72;;;1.85;;
9052;SDS011;4561;47.450;7.516;2023-05-07T09:04:38;3.97;;;1.75;;
9052;SDS011;4561;47.450;7.516;2023-05-07T09:08:02;3.33;;;1.80;;
9052;SDS011;4561;47.450;7.516;2023-05-07T09:11:25;3.65;;;1.90;;
9052;SDS011;4561;47.450;7.516;2023-05-07T09:14:48;3.33;;;2.05;;
9052;SDS011;4561;47.450;7.516;2023-05-07T09:18:11;2.10;;;1.88;;
9052;SDS011;4561;47.450;7.516;2023-05-07T09:21:35;4.38;;;2.03;;
9052;SDS011;4561;47.450;7.516;2023-05-07T09:24:55;2.30;;;1.90;;
9052;SDS011;4561;47.450;7.516;2023-05-07T09:28:15;2.13;;;1.65;;
9052;SDS011;4561;47.450;7.516;2023-05-07T09:31:37;3.53;;;2.00;;
9052;SDS011;4561;47.450;7.516;2023-05-07T09:34:58;2.97;;;1.80;;
9052;SDS011;4561;47.450;7.516;2023-05-07T09:38:18;2.42;;;1.52;;
9052;SDS011;4561;47.450;7.516;2023-05-07T09:41:43;2.85;;;1.63;;
9052;SDS011;4561;47.450;7.516;2023-05-07T09:45:05;1.70;;;1.30;;
9052;SDS011;4561;47.450;7.516;2023-05-07T09:48:26;2.17;;;1.70;;
9052;SDS011;4561;47.450;7.516;2023-05-07T09:51:51;1.63;;;1.52;;
9052;SDS011;4561;47.450;7.516;2023-05-07T09:55:12;2.63;;;1.23;;
9052;SDS011;4561;47.450;7.516;2023-05-07T09:58:36;3.47;;;2.08;;
9052;SDS011;4561;47.450;7.516;2023-05-07T10:01:57;2.45;;;1.70;;
9052;SDS011;4561;47.450;7.516;2023-05-07T10:05:21;2.35;;;1.60;;
9052;SDS011;4561;47.450;7.516;2023-05-07T10:08:42;2.47;;;1.45;;
9052;SDS011;4561;47.450;7.516;2023-05-07T10:12:03;1.95;;;1.55;;
9052;SDS011;4561;47.450;7.516;2023-05-07T10:15:26;4.82;;;2.08;;
9052;SDS011;4561;47.450;7.516;2023-05-07T10:18:46;3.33;;;1.73;;
9052;SDS011;4561;47.450;7.516;2023-05-07T10:22:08;2.17;;;1.85;;
9052;SDS011;4561;47.450;7.516;2023-05-07T10:25:29;5.50;;;1.75;;
9052;SDS011;4561;47.450;7.516;2023-05-07T10:28:53;2.55;;;1.80;;
9052;SDS011;4561;47.450;7.516;2023-05-07T10:35:49;4.68;;;2.10;;
9052;SDS011;4561;47.450;7.516;2023-05-07T10:39:10;1.92;;;1.63;;
9052;SDS011;4561;47.450;7.516;2023-05-07T10:42:30;2.38;;;1.73;;
9052;SDS011;4561;47.450;7.516;2023-05-07T10:56:40;3.55;;;1.83;;
9052;SDS011;4561;47.450;7.516;2023-05-07T11:00:03;2.22;;;1.70;;
9052;SDS011;4561;47.450;7.516;2023-05-07T11:03:24;2.47;;;2.27;;
9052;SDS011;4561;47.450;7.516;2023-05-07T11:10:49;2.57;;;1.90;;
9052;SDS011;4561;47.450;7.516;2023-05-07T11:14:14;4.40;;;1.93;;
9052;SDS011;4561;47.450;7.516;2023-05-07T11:17:35;2.90;;;1.90;;
9052;SDS011;4561;47.450;7.516;2023-05-07T11:21:12;2.90;;;2.10;;
9052;SDS011;4561;47.450;7.516;2023-05-07T11:24:37;3.97;;;2.17;;
9052;SDS011;4561;47.450;7.516;2023-05-07T11:28:08;2.23;;;1.77;;
9052;SDS011;4561;47.450;7.516;2023-05-07T11:31:30;2.47;;;1.67;;
9052;SDS011;4561;47.450;7.516;2023-05-07T11:34:52;2.73;;;1.70;;
9052;SDS011;4561;47.450;7.516;2023-05-07T11:38:16;4.20;;;1.93;;
9052;SDS011;4561;47.450;7.516;2023-05-07T11:41:39;1.60;;;1.47;;
9052;SDS011;4561;47.450;7.516;2023-05-07T11:45:02;1.87;;;1.50;;
9052;SDS011;4561;47.450;7.516;2023-05-07T11:48:23;1.30;;;1.20;;
9052;SDS011;4561;47.450;7.516;2023-05-07T11:51:44;3.00;;;1.70;;
9052;SDS011;4561;47.450;7.516;2023-05-07T11:55:06;6.30;;;1.70;;
9052;SDS011;4561;47.450;7.516;2023-05-07T11:58:27;1.67;;;1.50;;
9052;SDS011;4561;47.450;7.516;2023-05-07T12:01:48;1.83;;;1.30;;
9052;SDS011;4561;47.450;7.516;2023-05-07T12:05:08;2.13;;;1.40;;
9052;SDS011;4561;47.450;7.516;2023-05-07T12:08:28;5.07;;;1.73;;
9052;SDS011;4561;47.450;7.516;2023-05-07T12:11:51;2.73;;;1.63;;
9052;SDS011;4561;47.450;7.516;2023-05-07T12:15:15;3.97;;;1.90;;
9052;SDS011;4561;47.450;7.516;2023-05-07T12:18:36;2.70;;;1.50;;
9052;SDS011;4561;47.450;7.516;2023-05-07T12:21:59;3.87;;;1.50;;
9052;SDS011;4561;47.450;7.516;2023-05-07T12:25:20;1.67;;;1.10;;
9052;SDS011;4561;47.450;7.516;2023-05-07T12:28:42;2.57;;;1.47;;
9052;SDS011;4561;47.450;7.516;2023-05-07T12:32:03;1.63;;;1.40;;
9052;SDS011;4561;47.450;7.516;2023-05-07T12:35:36;1.37;;;1.20;;
9052;SDS011;4561;47.450;7.516;2023-05-07T12:38:59;3.87;;;2.13;;
9052;SDS011;4561;47.450;7.516;2023-05-07T12:42:21;2.07;;;1.40;;
9052;SDS011;4561;47.450;7.516;2023-05-07T12:45:49;1.50;;;1.13;;
9052;SDS011;4561;47.450;7.516;2023-05-07T12:49:12;2.20;;;1.47;;
9052;SDS011;4561;47.450;7.516;2023-05-07T12:52:35;3.70;;;1.67;;
9052;SDS011;4561;47.450;7.516;2023-05-07T12:55:59;2.77;;;1.30;;
9052;SDS011;4561;47.450;7.516;2023-05-07T12:59:20;1.30;;;1.03;;
9052;SDS011;4561;47.450;7.516;2023-05-07T13:02:53;1.40;;;1.07;;
9052;SDS011;4561;47.450;7.516;2023-05-07T13:06:14;3.53;;;1.40;;
9052;SDS011;4561;47.450;7.516;2023-05-07T13:09:34;2.00;;;1.10;;
9052;SDS011;4561;47.450;7.516;2023-05-07T13:12:56;2.10;;;1.20;;
9052;SDS011;4561;47.450;7.516;2023-05-07T13:16:17;1.73;;;1.20;;
9052;SDS011;4561;47.450;7.516;2023-05-07T13:19:40;2.33;;;0.90;;
9052;SDS011;4561;47.450;7.516;2023-05-07T13:23:01;3.60;;;1.30;;
9052;SDS011;4561;47.450;7.516;2023-05-07T13:26:22;3.33;;;1.17;;
9052;SDS011;4561;47.450;7.516;2023-05-07T13:29:42;2.47;;;1.10;;
9052;SDS011;4561;47.450;7.516;2023-05-07T13:33:02;1.00;;;0.90;;
9052;SDS011;4561;47.450;7.516;2023-05-07T13:36:23;1.97;;;1.10;;
9052;SDS011;4561;47.450;7.516;2023-05-07T13:39:43;2.67;;;1.13;;
9052;SDS011;4561;47.450;7.516;2023-05-07T13:43:05;2.37;;;1.27;;
9052;SDS011;4561;47.450;7.516;2023-05-07T13:46:26;1.90;;;1.20;;
9052;SDS011;4561;47.450;7.516;2023-05-07T13:49:46;2.83;;;1.33;;
9052;SDS011;4561;47.450;7.516;2023-05-07T13:53:09;4.67;;;1.60;;
9052;SDS011;4561;47.450;7.516;2023-05-07T13:56:30;1.63;;;1.10;;
9052;SDS011;4561;47.450;7.516;2023-05-07T13:59:52;2.17;;;1.17;;
9052;SDS011;4561;47.450;7.516;2023-05-07T14:03:12;1.80;;;1.37;;
9052;SDS011;4561;47.450;7.516;2023-05-07T14:06:32;1.90;;;1.20;;
9052;SDS011;4561;47.450;7.516;2023-05-07T14:09:53;2.87;;;1.30;;
9052;SDS011;4561;47.450;7.516;2023-05-07T14:13:14;3.00;;;1.07;;
9052;SDS011;4561;47.450;7.516;2023-05-07T14:16:36;2.10;;;1.33;;
9052;SDS011;4561;47.450;7.516;2023-05-07T14:19:57;1.60;;;1.10;;
9052;SDS011;4561;47.450;7.516;2023-05-07T14:23:18;2.00;;;1.10;;
9052;SDS011;4561;47.450;7.516;2023-05-07T14:26:39;2.73;;;0.97;;
9052;SDS011;4561;47.450;7.516;2023-05-07T14:29:59;2.47;;;0.83;;
9052;SDS011;4561;47.450;7.516;2023-05-07T14:33:20;1.77;;;1.00;;
9052;SDS011;4561;47.450;7.516;2023-05-07T14:36:40;0.80;;;0.80;;
9052;SDS011;4561;47.450;7.516;2023-05-07T14:40:04;2.23;;;0.90;;
9052;SDS011;4561;47.450;7.516;2023-05-07T14:43:24;2.00;;;1.00;;
9052;SDS011;4561;47.450;7.516;2023-05-07T14:46:45;1.40;;;1.20;;
9052;SDS011;4561;47.450;7.516;2023-05-07T14:50:05;2.37;;;0.93;;
9052;SDS011;4561;47.450;7.516;2023-05-07T14:53:26;1.27;;;0.80;;
9052;SDS011;4561;47.450;7.516;2023-05-07T14:56:46;0.93;;;0.87;;
9052;SDS011;4561;47.450;7.516;2023-05-07T15:00:07;1.10;;;0.90;;
9052;SDS011;4561;47.450;7.516;2023-05-07T15:03:28;4.20;;;1.00;;
9052;SDS011;4561;47.450;7.516;2023-05-07T15:06:49;1.97;;;1.00;;
9052;SDS011;4561;47.450;7.516;2023-05-07T15:10:09;1.87;;;1.10;;
9052;SDS011;4561;47.450;7.516;2023-05-07T15:13:30;1.03;;;0.90;;
9052;SDS011;4561;47.450;7.516;2023-05-07T15:16:50;1.40;;;0.90;;
9052;SDS011;4561;47.450;7.516;2023-05-07T15:20:11;2.10;;;1.00;;
9052;SDS011;4561;47.450;7.516;2023-05-07T15:23:33;1.10;;;1.00;;
9052;SDS011;4561;47.450;7.516;2023-05-07T15:26:54;2.87;;;1.40;;
9052;SDS011;4561;47.450;7.516;2023-05-07T15:30:15;1.70;;;1.10;;
9052;SDS011;4561;47.450;7.516;2023-05-07T15:33:35;1.57;;;1.10;;
9052;SDS011;4561;47.450;7.516;2023-05-07T15:36:56;3.20;;;1.57;;
9052;SDS011;4561;47.450;7.516;2023-05-07T15:40:19;1.97;;;1.30;;
9052;SDS011;4561;47.450;7.516;2023-05-07T15:43:43;1.50;;;1.40;;
9052;SDS011;4561;47.450;7.516;2023-05-07T15:47:05;3.17;;;1.57;;
9052;SDS011;4561;47.450;7.516;2023-05-07T15:50:26;1.80;;;1.30;;
9052;SDS011;4561;47.450;7.516;2023-05-07T15:53:46;1.37;;;1.27;;
9052;SDS011;4561;47.450;7.516;2023-05-07T15:57:07;2.20;;;1.40;;
9052;SDS011;4561;47.450;7.516;2023-05-07T16:00:27;1.50;;;1.40;;
9052;SDS011;4561;47.450;7.516;2023-05-07T16:03:48;5.07;;;1.80;;
9052;SDS011;4561;47.450;7.516;2023-05-07T16:07:10;6.27;;;2.33;;
9052;SDS011;4561;47.450;7.516;2023-05-07T16:10:33;2.30;;;1.60;;
9052;SDS011;4561;47.450;7.516;2023-05-07T16:13:54;2.43;;;1.57;;
9052;SDS011;4561;47.450;7.516;2023-05-07T16:17:14;2.13;;;1.60;;
9052;SDS011;4561;47.450;7.516;2023-05-07T16:20:34;2.47;;;1.83;;
9052;SDS011;4561;47.450;7.516;2023-05-07T16:23:55;3.50;;;1.87;;
9052;SDS011;4561;47.450;7.516;2023-05-07T16:27:15;2.80;;;1.80;;
9052;SDS011;4561;47.450;7.516;2023-05-07T16:30:36;1.63;;;1.53;;
9052;SDS011;4561;47.450;7.516;2023-05-07T16:33:59;4.30;;;1.80;;
9052;SDS011;4561;47.450;7.516;2023-05-07T16:37:20;2.37;;;1.83;;
9052;SDS011;4561;47.450;7.516;2023-05-07T16:40:41;5.37;;;1.90;;
9052;SDS011;4561;47.450;7.516;2023-05-07T16:44:05;3.10;;;1.50;;
9052;SDS011;4561;47.450;7.516;2023-05-07T16:47:25;2.63;;;1.80;;
9052;SDS011;4561;47.450;7.516;2023-05-07T16:50:45;5.43;;;1.83;;
9052;SDS011;4561;47.450;7.516;2023-05-07T16:54:09;2.67;;;1.20;;
9052;SDS011;4561;47.450;7.516;2023-05-07T16:57:29;4.20;;;1.40;;
9052;SDS011;4561;47.450;7.516;2023-05-07T17:00:50;3.27;;;1.30;;
9052;SDS011;4561;47.450;7.516;2023-05-07T17:04:10;3.83;;;1.40;;
9052;SDS011;4561;47.450;7.516;2023-05-07T17:07:33;2.23;;;1.10;;
9052;SDS011;4561;47.450;7.516;2023-05-07T17:10:56;2.33;;;1.07;;
9052;SDS011;4561;47.450;7.516;2023-05-07T17:14:16;1.37;;;1.13;;
9052;SDS011;4561;47.450;7.516;2023-05-07T17:17:37;1.87;;;1.00;;
9052;SDS011;4561;47.450;7.516;2023-05-07T17:20:57;5.30;;;1.37;;
9052;SDS011;4561;47.450;7.516;2023-05-07T17:24:18;1.93;;;1.10;;
9052;SDS011;4561;47.450;7.516;2023-05-07T17:27:38;1.50;;;1.00;;
9052;SDS011;4561;47.450;7.516;2023-05-07T17:31:01;1.70;;;1.00;;
9052;SDS011;4561;47.450;7.516;2023-05-07T17:34:24;1.53;;;0.80;;
9052;SDS011;4561;47.450;7.516;2023-05-07T17:37:45;0.80;;;0.80;;
9052;SDS011;4561;47.450;7.516;2023-05-07T17:41:11;2.07;;;1.10;;
9052;SDS011;4561;47.450;7.516;2023-05-07T17:44:34;1.30;;;1.20;;
9052;SDS011;4561;47.450;7.516;2023-05-07T17:47:54;1.93;;;0.90;;
9052;SDS011;4561;47.450;7.516;2023-05-07T17:51:15;1.67;;;1.20;;
9052;SDS011;4561;47.450;7.516;2023-05-07T17:54:35;4.93;;;1.13;;
9052;SDS011;4561;47.450;7.516;2023-05-07T17:57:56;4.20;;;0.93;;
9052;SDS011;4561;47.450;7.516;2023-05-07T18:01:16;3.23;;;1.20;;
9052;SDS011;4561;47.450;7.516;2023-05-07T18:04:36;2.50;;;1.00;;
9052;SDS011;4561;47.450;7.516;2023-05-07T18:07:57;3.10;;;0.90;;
9052;SDS011;4561;47.450;7.516;2023-05-07T18:11:17;1.07;;;0.97;;
9052;SDS011;4561;47.450;7.516;2023-05-07T18:14:38;1.37;;;0.93;;
9052;SDS011;4561;47.450;7.516;2023-05-07T18:18:01;1.20;;;1.10;;
9052;SDS011;4561;47.450;7.516;2023-05-07T18:21:24;3.13;;;1.27;;
9052;SDS011;4561;47.450;7.516;2023-05-07T18:24:44;2.33;;;0.83;;
9052;SDS011;4561;47.450;7.516;2023-05-07T18:28:04;2.03;;;0.93;;
9052;SDS011;4561;47.450;7.516;2023-05-07T18:31:25;1.17;;;1.00;;
9052;SDS011;4561;47.450;7.516;2023-05-07T18:34:45;1.20;;;1.07;;
9052;SDS011;4561;47.450;7.516;2023-05-07T18:38:06;1.30;;;1.13;;
9052;SDS011;4561;47.450;7.516;2023-05-07T18:41:26;2.00;;;1.20;;
9052;SDS011;4561;47.450;7.516;2023-05-07T18:44:48;2.87;;;1.00;;
9052;SDS011;4561;47.450;7.516;2023-05-07T18:48:09;2.23;;;1.03;;
9052;SDS011;4561;47.450;7.516;2023-05-07T18:51:29;1.47;;;1.17;;
9052;SDS011;4561;47.450;7.516;2023-05-07T18:54:50;3.90;;;1.00;;
9052;SDS011;4561;47.450;7.516;2023-05-07T18:58:10;1.10;;;0.83;;
9052;SDS011;4561;47.450;7.516;2023-05-07T19:01:31;4.10;;;1.00;;
9052;SDS011;4561;47.450;7.516;2023-05-07T19:04:52;1.03;;;0.97;;
9052;SDS011;4561;47.450;7.516;2023-05-07T19:08:14;2.03;;;1.10;;
9052;SDS011;4561;47.450;7.516;2023-05-07T19:11:37;1.20;;;0.93;;
9052;SDS011;4561;47.450;7.516;2023-05-07T19:14:57;2.10;;;1.10;;
9052;SDS011;4561;47.450;7.516;2023-05-07T19:18:18;2.33;;;1.30;;
9052;SDS011;4561;47.450;7.516;2023-05-07T19:21:38;4.70;;;1.20;;
9052;SDS011;4561;47.450;7.516;2023-05-07T19:24:59;5.00;;;1.30;;
9052;SDS011;4561;47.450;7.516;2023-05-07T19:28:22;1.63;;;1.00;;
9052;SDS011;4561;47.450;7.516;2023-05-07T19:31:42;2.73;;;1.40;;
9052;SDS011;4561;47.450;7.516;2023-05-07T19:35:03;1.20;;;0.90;;
9052;SDS011;4561;47.450;7.516;2023-05-07T19:38:24;2.30;;;1.10;;
9052;SDS011;4561;47.450;7.516;2023-05-07T19:41:45;2.83;;;1.20;;
9052;SDS011;4561;47.450;7.516;2023-05-07T19:45:05;2.93;;;1.07;;
9052;SDS011;4561;47.450;7.516;2023-05-07T19:48:26;1.90;;;1.07;;
9052;SDS011;4561;47.450;7.516;2023-05-07T19:51:49;1.10;;;1.00;;
9052;SDS011;4561;47.450;7.516;2023-05-07T19:55:10;1.53;;;1.10;;
9052;SDS011;4561;47.450;7.516;2023-05-07T19:58:31;1.40;;;0.90;;
9052;SDS011;4561;47.450;7.516;2023-05-07T20:01:52;0.93;;;0.80;;
9052;SDS011;4561;47.450;7.516;2023-05-07T20:05:13;2.17;;;1.00;;
9052;SDS011;4561;47.450;7.516;2023-05-07T20:08:33;2.10;;;0.87;;
9052;SDS011;4561;47.450;7.516;2023-05-07T20:11:54;1.77;;;1.00;;
9052;SDS011;4561;47.450;7.516;2023-05-07T20:15:15;1.40;;;1.00;;
9052;SDS011;4561;47.450;7.516;2023-05-07T20:18:36;2.90;;;1.13;;
9052;SDS011;4561;47.450;7.516;2023-05-07T20:21:56;6.03;;;1.10;;
9052;SDS011;4561;47.450;7.516;2023-05-07T20:25:17;2.20;;;0.90;;
9052;SDS011;4561;47.450;7.516;2023-05-07T20:28:37;2.23;;;1.20;;
9052;SDS011;4561;47.450;7.516;2023-05-07T20:32:00;1.30;;;1.10;;
9052;SDS011;4561;47.450;7.516;2023-05-07T20:35:21;1.67;;;1.00;;
9052;SDS011;4561;47.450;7.516;2023-05-07T20:38:41;2.20;;;1.10;;
9052;SDS011;4561;47.450;7.516;2023-05-07T20:42:03;1.10;;;1.00;;
9052;SDS011;4561;47.450;7.516;2023-05-07T20:45:23;2.27;;;1.00;;
9052;SDS011;4561;47.450;7.516;2023-05-07T20:48:44;2.50;;;1.10;;
9052;SDS011;4561;47.450;7.516;2023-05-07T20:52:07;1.10;;;1.00;;
9052;SDS011;4561;47.450;7.516;2023-05-07T20:55:30;1.67;;;0.87;;
9052;SDS011;4561;47.450;7.516;2023-05-07T20:58:50;1.47;;;1.00;;
9052;SDS011;4561;47.450;7.516;2023-05-07T21:02:11;1.20;;;1.10;;
9052;SDS011;4561;47.450;7.516;2023-05-07T21:05:31;1.27;;;0.90;;
9052;SDS011;4561;47.450;7.516;2023-05-07T21:08:52;1.07;;;0.93;;